Sister Bay, Wisconsin
Current Conditions -  °F | °C
As of 6:55 PM on Saturday 22 Nov 2014 (Local Time) from KMNM Reporting Station
Overcast Overcast  
Wind Chill: 34°   Ceiling: 600
Heat Index: 37°   Visibility: 3mi
Dew Point: 34°   Wind: 5mph
Humidity: 87%   Direction: 230°SW
Pressure: 29.75"   Gusts: NA
Location:  45.19°N, 87.12°W
Report Text: KMNM 230055Z AUTO 23004KT 3SM OVC006 03/01 A2975 RMK AO1
Loading
Personal Weather Stations






























Interactive Weather Map New forecast layout! Learn more

10-Day Weather Forecast

Advertisements
Track Severe Weather on mobile